createdAt,value
2018-06-22T00:01:12.561Z,12.30
2018-06-22T00:03:40.974Z,12.40
2018-06-22T00:06:09.385Z,12.30
2018-06-22T00:08:37.833Z,12.20
2018-06-22T00:11:06.295Z,12.10
2018-06-22T00:13:34.665Z,12.00
2018-06-22T00:16:03.153Z,12.10
2018-06-22T00:18:31.563Z,12.20
2018-06-22T00:23:28.035Z,12.10
2018-06-22T00:28:24.491Z,12.30
2018-06-22T00:30:52.985Z,12.20
2018-06-22T00:33:21.366Z,12.30
2018-06-22T00:35:49.754Z,12.30
2018-06-22T00:38:18.187Z,12.30
2018-06-22T00:40:47.116Z,12.20
2018-06-22T00:43:15.598Z,12.20
2018-06-22T00:45:44.062Z,12.20
2018-06-22T00:50:40.564Z,12.30
2018-06-22T00:53:20.465Z,12.30
2018-06-22T00:55:48.903Z,12.30
2018-06-22T00:58:17.688Z,12.20
2018-06-22T01:00:46.417Z,12.20
2018-06-22T01:03:15.282Z,12.20
2018-06-22T01:05:44.242Z,12.00
2018-06-22T01:08:12.820Z,12.00
2018-06-22T01:10:41.218Z,12.10
2018-06-22T01:13:09.626Z,12.10
2018-06-22T01:15:38.084Z,12.20
2018-06-22T01:18:06.506Z,12.20
2018-06-22T01:20:34.862Z,12.20
2018-06-22T01:23:03.310Z,12.10
2018-06-22T01:25:31.728Z,12.10
2018-06-22T01:28:00.083Z,12.00
2018-06-22T01:30:28.513Z,12.00
2018-06-22T01:32:56.896Z,12.00
2018-06-22T01:35:25.294Z,12.00
2018-06-22T01:37:53.689Z,12.00
2018-06-22T01:40:22.075Z,12.00
2018-06-22T01:42:50.500Z,12.00
2018-06-22T01:45:18.915Z,12.00
2018-06-22T01:47:47.269Z,12.00
2018-06-22T01:50:15.718Z,12.10
2018-06-22T01:52:44.130Z,12.20
2018-06-22T01:55:12.477Z,12.10
2018-06-22T01:57:40.890Z,12.10
2018-06-22T02:00:09.837Z,12.10
2018-06-22T02:02:38.217Z,12.10
2018-06-22T02:05:06.739Z,12.10
2018-06-22T02:07:35.101Z,12.10
2018-06-22T02:10:03.519Z,12.10
2018-06-22T02:12:31.917Z,12.00
2018-06-22T02:15:00.293Z,12.00
2018-06-22T02:17:28.731Z,12.10
2018-06-22T02:19:57.245Z,12.00
2018-06-22T02:24:53.780Z,12.00
2018-06-22T02:27:22.140Z,11.90
2018-06-22T02:29:50.567Z,11.90
2018-06-22T02:32:18.981Z,11.90
2018-06-22T02:34:47.532Z,11.80
2018-06-22T02:39:44.202Z,11.60
2018-06-22T02:42:12.564Z,11.70
2018-06-22T02:44:41.009Z,11.70
2018-06-22T02:47:09.415Z,11.70
2018-06-22T02:49:37.847Z,11.70
2018-06-22T02:52:06.223Z,11.60
2018-06-22T02:54:34.647Z,11.50
2018-06-22T02:57:03.061Z,11.50
2018-06-22T02:59:31.508Z,11.50
2018-06-22T03:01:59.916Z,11.50
2018-06-22T03:04:29.016Z,11.50
2018-06-22T03:06:57.374Z,11.40
2018-06-22T03:09:25.869Z,11.30
2018-06-22T03:11:54.228Z,11.30
2018-06-22T03:14:22.682Z,11.40
2018-06-22T03:16:51.062Z,11.40
2018-06-22T03:19:19.473Z,11.40
2018-06-22T03:21:47.889Z,11.40
2018-06-22T03:24:16.320Z,11.40
2018-06-22T03:26:44.683Z,11.40
2018-06-22T03:29:13.181Z,11.40
2018-06-22T03:31:41.593Z,11.30
2018-06-22T03:34:10.062Z,11.30
2018-06-22T03:36:38.898Z,11.30
2018-06-22T03:41:35.798Z,11.30
2018-06-22T03:44:04.242Z,11.20
2018-06-22T03:46:32.652Z,11.30
2018-06-22T03:49:01.071Z,11.30
2018-06-22T03:51:29.490Z,11.20
2018-06-22T03:53:57.870Z,11.20
2018-06-22T03:56:26.277Z,11.10
2018-06-22T03:58:54.691Z,11.20
2018-06-22T04:01:23.059Z,11.20
2018-06-22T04:03:51.450Z,11.10
2018-06-22T04:06:19.890Z,11.20
2018-06-22T04:08:48.330Z,11.30
2018-06-22T04:11:16.771Z,11.30
2018-06-22T04:13:45.424Z,11.30
2018-06-22T04:16:13.837Z,11.20
2018-06-22T04:18:42.234Z,11.10
2018-06-22T04:21:10.639Z,11.10
2018-06-22T04:23:39.034Z,11.10
2018-06-22T04:26:07.458Z,11.20
2018-06-22T04:28:35.855Z,11.10
2018-06-22T04:31:04.246Z,11.20
2018-06-22T04:33:32.646Z,11.30
2018-06-22T04:36:01.017Z,11.30
2018-06-22T04:38:29.444Z,11.40
2018-06-22T04:40:57.870Z,11.50
2018-06-22T04:43:26.261Z,11.50
2018-06-22T04:45:54.783Z,11.50
2018-06-22T04:48:23.764Z,11.50
2018-06-22T04:50:52.264Z,11.50
2018-06-22T04:53:20.661Z,11.60
2018-06-22T04:55:49.057Z,11.60
2018-06-22T04:58:17.690Z,11.80
2018-06-22T05:00:46.177Z,11.80
2018-06-22T05:03:14.574Z,11.90
2018-06-22T05:05:42.969Z,12.00
2018-06-22T05:08:11.458Z,12.00
2018-06-22T05:10:39.945Z,12.20
2018-06-22T05:13:08.342Z,12.20
2018-06-22T05:15:36.816Z,12.20
2018-06-22T05:18:05.275Z,12.30
2018-06-22T05:20:34.211Z,12.50
2018-06-22T05:23:02.589Z,12.60
2018-06-22T05:25:31.065Z,12.60
2018-06-22T05:28:00.039Z,12.70
2018-06-22T05:30:28.409Z,12.90
2018-06-22T05:32:56.826Z,13.10
2018-06-22T05:35:25.265Z,13.10
2018-06-22T05:37:53.786Z,13.00
2018-06-22T05:40:22.304Z,12.90
2018-06-22T05:42:50.702Z,13.10
2018-06-22T05:45:19.099Z,13.20
2018-06-22T05:47:47.656Z,13.20
2018-06-22T05:50:16.076Z,13.40
2018-06-22T05:52:44.643Z,13.70
2018-06-22T05:55:13.037Z,14.00
2018-06-22T05:57:41.427Z,14.20
2018-06-22T06:00:09.955Z,14.40
2018-06-22T06:02:38.450Z,14.30
2018-06-22T06:05:06.839Z,14.30
2018-06-22T06:07:35.329Z,14.40
2018-06-22T06:10:04.365Z,14.60
2018-06-22T06:12:32.845Z,14.50
2018-06-22T06:15:01.374Z,14.50
2018-06-22T06:17:29.818Z,14.50
2018-06-22T06:19:58.269Z,14.90
2018-06-22T06:22:26.754Z,15.10
2018-06-22T06:24:55.167Z,15.20
2018-06-22T06:27:23.728Z,15.40
2018-06-22T06:29:52.037Z,15.60
2018-06-22T06:32:20.406Z,15.90
2018-06-22T06:34:48.793Z,16.20
2018-06-22T06:37:17.169Z,16.60
2018-06-22T06:39:45.516Z,17.00
2018-06-22T06:42:13.963Z,17.00
2018-06-22T06:44:42.633Z,17.20
2018-06-22T06:47:11.613Z,17.10
2018-06-22T06:49:40.212Z,16.60
2018-06-22T06:52:08.566Z,16.60
2018-06-22T06:54:36.957Z,16.80
2018-06-22T06:57:05.608Z,17.10
2018-06-22T06:59:34.234Z,16.60
2018-06-22T07:02:02.716Z,16.10
2018-06-22T07:04:31.142Z,15.80
2018-06-22T07:06:59.533Z,15.70
2018-06-22T07:09:27.949Z,15.60
2018-06-22T07:11:56.361Z,15.50
2018-06-22T07:14:24.877Z,15.30
2018-06-22T07:16:53.322Z,15.30
2018-06-22T07:19:21.800Z,15.10
2018-06-22T07:21:50.515Z,15.20
2018-06-22T07:24:18.902Z,15.10
2018-06-22T07:26:47.595Z,15.00
2018-06-22T07:29:15.996Z,15.00
2018-06-22T07:31:44.477Z,14.90
2018-06-22T07:34:12.863Z,14.80
2018-06-22T07:36:41.329Z,14.90
2018-06-22T07:39:11.217Z,14.90
2018-06-22T07:41:40.721Z,15.00
2018-06-22T07:44:10.092Z,15.10
2018-06-22T07:46:38.490Z,15.00
2018-06-22T07:49:06.862Z,15.00
2018-06-22T07:51:35.358Z,15.00
2018-06-22T07:54:03.811Z,14.90
2018-06-22T07:56:32.246Z,14.90
2018-06-22T07:59:00.740Z,14.80
2018-06-22T08:01:29.101Z,14.80
2018-06-22T08:03:57.622Z,14.80
2018-06-22T08:06:26.089Z,14.80
2018-06-22T08:08:54.511Z,14.80
2018-06-22T08:11:22.917Z,14.80
2018-06-22T08:13:51.309Z,14.70
2018-06-22T08:16:19.741Z,14.70
2018-06-22T08:18:48.098Z,14.80
2018-06-22T08:21:16.617Z,14.80
2018-06-22T08:23:44.995Z,14.70
2018-06-22T08:26:13.420Z,14.80
2018-06-22T08:28:42.012Z,14.70
2018-06-22T08:31:10.431Z,14.80
2018-06-22T08:33:38.865Z,14.90
2018-06-22T08:36:07.281Z,15.00
2018-06-22T08:38:35.739Z,15.20
2018-06-22T08:41:04.146Z,15.10
2018-06-22T08:43:32.617Z,15.00
2018-06-22T08:46:01.009Z,15.20
2018-06-22T08:48:29.456Z,15.40
2018-06-22T08:50:57.824Z,15.30
2018-06-22T08:53:26.222Z,15.40
2018-06-22T08:55:54.677Z,15.30
2018-06-22T08:58:23.063Z,15.30
2018-06-22T09:03:19.620Z,15.30
2018-06-22T09:05:48.021Z,15.60
2018-06-22T09:08:16.519Z,15.80
2018-06-22T09:10:44.986Z,16.00
2018-06-22T09:15:41.593Z,16.00
2018-06-22T09:18:10.026Z,16.10
2018-06-22T09:20:38.538Z,16.20
2018-06-22T09:23:07.693Z,16.10
2018-06-22T09:25:36.208Z,16.20
2018-06-22T09:28:04.622Z,16.40
2018-06-22T09:30:33.046Z,16.50
2018-06-22T09:33:01.509Z,16.50
2018-06-22T09:35:29.963Z,16.20
2018-06-22T09:37:58.377Z,16.10
2018-06-22T09:40:26.806Z,16.00
2018-06-22T09:42:55.293Z,15.90
2018-06-22T09:45:23.654Z,15.70
2018-06-22T09:47:52.156Z,15.50
2018-06-22T09:50:20.857Z,15.50
2018-06-22T09:52:49.207Z,15.60
2018-06-22T09:55:17.622Z,16.10
2018-06-22T09:57:46.109Z,16.40
2018-06-22T10:00:14.600Z,16.30
2018-06-22T10:02:43.019Z,16.10
2018-06-22T10:05:11.691Z,16.00
2018-06-22T10:07:40.105Z,15.80
2018-06-22T10:10:08.522Z,15.90
2018-06-22T10:12:36.965Z,16.20
2018-06-22T10:15:05.405Z,16.50
2018-06-22T10:17:33.824Z,16.40
2018-06-22T10:20:02.323Z,16.60
2018-06-22T10:22:30.678Z,16.70
2018-06-22T10:24:59.472Z,16.80
2018-06-22T10:27:27.855Z,17.20
2018-06-22T10:29:56.315Z,17.40
2018-06-22T10:32:24.800Z,17.30
2018-06-22T10:34:53.256Z,17.30
2018-06-22T10:37:21.620Z,17.30
2018-06-22T10:39:50.693Z,17.20
2018-06-22T10:42:19.106Z,17.10
2018-06-22T10:44:47.521Z,16.80
2018-06-22T10:47:15.981Z,16.40
2018-06-22T10:49:44.418Z,16.20
2018-06-22T10:52:12.909Z,16.00
2018-06-22T10:54:41.285Z,16.10
2018-06-22T10:57:09.715Z,16.00
2018-06-22T10:59:38.277Z,15.90
2018-06-22T11:02:06.649Z,16.00
2018-06-22T11:04:35.033Z,16.30
2018-06-22T11:07:03.520Z,16.70
2018-06-22T11:09:31.889Z,16.80
2018-06-22T11:12:00.420Z,16.70
2018-06-22T11:14:28.869Z,16.60
2018-06-22T11:16:57.316Z,16.90
2018-06-22T11:19:25.713Z,17.40
2018-06-22T11:21:54.120Z,17.20
2018-06-22T11:24:22.560Z,17.10
2018-06-22T11:26:50.963Z,17.20
2018-06-22T11:29:19.418Z,17.50
2018-06-22T11:31:48.720Z,17.90
2018-06-22T11:34:17.144Z,18.30
2018-06-22T11:36:45.561Z,18.30
2018-06-22T11:41:59.558Z,25.10
2018-06-22T11:44:28.123Z,21.90
2018-06-22T11:46:56.540Z,19.70
2018-06-22T11:49:24.965Z,18.80
2018-06-22T11:51:53.442Z,18.20
2018-06-22T11:54:21.870Z,17.70
2018-06-22T11:56:50.338Z,17.30
2018-06-22T11:59:18.830Z,17.20
2018-06-22T12:01:47.959Z,17.00
2018-06-22T12:04:16.330Z,16.80
2018-06-22T12:06:44.842Z,16.70
2018-06-22T12:09:13.989Z,16.60
2018-06-22T12:11:43.127Z,16.50
2018-06-22T12:14:11.779Z,16.60
2018-06-22T12:16:40.251Z,16.80
2018-06-22T12:19:08.699Z,17.10
2018-06-22T12:21:37.082Z,17.20
2018-06-22T12:24:06.245Z,17.00
2018-06-22T12:26:34.621Z,16.70
2018-06-22T12:29:03.158Z,16.30
2018-06-22T12:31:31.741Z,16.10
2018-06-22T12:34:00.166Z,16.30
2018-06-22T12:36:28.578Z,16.30
2018-06-22T12:38:57.004Z,16.50
2018-06-22T12:41:25.450Z,16.80
2018-06-22T12:43:53.929Z,16.90
2018-06-22T12:46:22.346Z,17.10
2018-06-22T12:48:50.736Z,17.10
2018-06-22T12:51:19.140Z,17.70
2018-06-22T12:53:47.575Z,17.90
2018-06-22T12:56:16.048Z,17.90
2018-06-22T12:58:44.462Z,18.00
2018-06-22T13:01:12.834Z,18.00
2018-06-22T13:03:41.306Z,18.00
2018-06-22T13:06:09.678Z,18.40
2018-06-22T13:08:38.079Z,18.20
2018-06-22T13:11:06.469Z,17.90
2018-06-22T13:13:34.826Z,17.60
2018-06-22T13:16:03.257Z,17.50
2018-06-22T13:18:31.849Z,17.50
2018-06-22T13:21:00.254Z,17.70
2018-06-22T13:25:56.890Z,18.50
2018-06-22T13:28:25.242Z,18.40
2018-06-22T13:30:53.694Z,18.80
2018-06-22T13:33:22.086Z,19.30
2018-06-22T13:35:50.506Z,19.40
2018-06-22T13:38:18.987Z,19.60
2018-06-22T13:40:47.363Z,19.90
2018-06-22T13:43:15.798Z,19.70
2018-06-22T13:45:44.243Z,19.70
2018-06-22T13:48:12.712Z,20.20
2018-06-22T13:50:41.141Z,20.20
2018-06-22T13:53:09.909Z,20.00
2018-06-22T13:55:38.293Z,19.80
2018-06-22T13:58:06.677Z,19.40
2018-06-22T14:00:35.097Z,18.90
2018-06-22T14:03:03.727Z,18.60
2018-06-22T14:05:37.379Z,18.30
2018-06-22T14:08:05.793Z,18.80
2018-06-22T14:10:34.199Z,18.70
2018-06-22T14:13:02.788Z,18.60
2018-06-22T14:15:31.227Z,18.70
2018-06-22T14:17:59.686Z,18.40
2018-06-22T14:20:28.194Z,18.30
2018-06-22T14:22:56.593Z,18.50
2018-06-22T14:25:24.950Z,18.70
2018-06-22T14:27:53.382Z,18.70
2018-06-22T14:30:21.843Z,19.00
2018-06-22T14:32:50.353Z,19.20
2018-06-22T14:37:47.042Z,19.10
2018-06-22T14:40:15.484Z,19.10
2018-06-22T14:42:43.915Z,18.80
2018-06-22T14:45:12.314Z,18.70
2018-06-22T14:47:40.711Z,18.50
2018-06-22T14:50:13.529Z,18.50
2018-06-22T14:52:41.959Z,18.30
2018-06-22T14:55:15.667Z,18.30
2018-06-22T14:57:49.554Z,18.50
2018-06-22T15:00:23.346Z,18.50
2018-06-22T15:02:57.051Z,18.40
2018-06-22T15:05:30.782Z,18.30
2018-06-22T15:08:01.581Z,18.20
2018-06-22T15:10:30.576Z,18.20
2018-06-22T15:12:59.033Z,18.20
2018-06-22T15:15:27.519Z,18.10
2018-06-22T15:17:55.947Z,18.20
2018-06-22T15:20:24.398Z,18.40
2018-06-22T15:22:52.904Z,18.60
2018-06-22T15:25:21.285Z,18.50
2018-06-22T15:27:49.821Z,18.30
2018-06-22T15:30:18.223Z,18.40
2018-06-22T15:32:46.632Z,18.60
2018-06-22T15:35:20.202Z,18.60
2018-06-22T15:37:54.918Z,18.30
2018-06-22T15:40:28.530Z,18.30
2018-06-22T15:43:03.016Z,18.20
2018-06-22T15:45:36.906Z,18.10
2018-06-22T15:48:10.794Z,17.80
2018-06-22T15:50:44.574Z,17.90
2018-06-22T15:53:18.346Z,17.90
2018-06-22T15:55:47.862Z,17.60
2018-06-22T15:58:16.402Z,17.40
2018-06-22T16:00:44.822Z,17.30
2018-06-22T16:03:18.697Z,17.20
2018-06-22T16:05:47.233Z,17.30
2018-06-22T16:08:15.668Z,17.40
2018-06-22T16:10:44.141Z,17.50
2018-06-22T16:13:17.959Z,17.60
2018-06-22T16:15:51.881Z,17.60
2018-06-22T16:18:25.767Z,17.60
2018-06-22T16:21:00.243Z,17.60
2018-06-22T16:23:33.952Z,17.70
2018-06-22T16:26:07.730Z,17.70
2018-06-22T16:28:36.126Z,17.50
2018-06-22T16:31:04.548Z,17.40
2018-06-22T16:33:32.935Z,17.30
2018-06-22T16:36:01.443Z,17.40
2018-06-22T16:38:29.884Z,17.50
2018-06-22T16:40:58.308Z,17.60
2018-06-22T16:43:27.030Z,17.70
2018-06-22T16:45:55.440Z,17.80
2018-06-22T16:48:23.848Z,17.90
2018-06-22T16:50:53.053Z,18.10
2018-06-22T16:53:21.435Z,18.20
2018-06-22T16:55:49.863Z,18.20
2018-06-22T16:58:24.105Z,18.00
2018-06-22T17:00:52.575Z,17.80
2018-06-22T17:03:20.941Z,17.60
2018-06-22T17:05:49.333Z,17.60
2018-06-22T17:08:23.199Z,17.40
2018-06-22T17:10:56.875Z,17.30
2018-06-22T17:13:30.626Z,17.10
2018-06-22T17:16:04.273Z,17.00
2018-06-22T17:18:37.950Z,17.00
2018-06-22T17:21:06.420Z,17.00
2018-06-22T17:23:34.842Z,16.90
2018-06-22T17:26:03.321Z,16.90
2018-06-22T17:28:31.790Z,17.10
2018-06-22T17:31:00.938Z,17.20
2018-06-22T17:33:29.559Z,17.30
2018-06-22T17:35:58.039Z,17.30
2018-06-22T17:38:26.559Z,17.20
2018-06-22T17:40:54.975Z,17.10
2018-06-22T17:43:23.339Z,17.00
2018-06-22T17:45:51.889Z,17.00
2018-06-22T17:48:20.477Z,17.00
2018-06-22T17:50:48.877Z,16.90
2018-06-22T17:53:17.321Z,16.90
2018-06-22T17:55:45.780Z,17.00
2018-06-22T17:58:14.264Z,16.90
2018-06-22T18:00:47.886Z,17.00
2018-06-22T18:03:21.802Z,17.10
2018-06-22T18:05:55.787Z,17.10
2018-06-22T18:08:29.654Z,16.90
2018-06-22T18:11:03.501Z,16.70
2018-06-22T18:13:32.217Z,16.70
2018-06-22T18:16:00.671Z,16.80
2018-06-22T18:18:29.119Z,16.70
2018-06-22T18:20:57.608Z,16.70
2018-06-22T18:23:26.111Z,16.60
2018-06-22T18:25:54.510Z,16.40
2018-06-22T18:28:22.978Z,16.30
2018-06-22T18:30:51.373Z,16.30
2018-06-22T18:33:19.806Z,16.30
2018-06-22T18:38:16.291Z,16.40
2018-06-22T18:40:44.874Z,16.30
2018-06-22T18:43:18.697Z,16.40
2018-06-22T18:45:47.155Z,16.40
2018-06-22T18:48:16.279Z,16.30
2018-06-22T18:50:44.836Z,16.40
2018-06-22T18:53:18.402Z,16.20
2018-06-22T18:55:52.130Z,16.10
2018-06-22T18:58:26.001Z,16.00
2018-06-22T19:00:59.894Z,15.90
2018-06-22T19:03:33.722Z,15.80
2018-06-22T19:06:02.185Z,15.80
2018-06-22T19:08:30.821Z,15.80
2018-06-22T19:10:59.256Z,15.60
2018-06-22T19:13:27.657Z,15.50
2018-06-22T19:15:56.167Z,15.40
2018-06-22T19:18:24.590Z,15.40
2018-06-22T19:20:53.063Z,15.30
2018-06-22T19:23:21.506Z,15.30
2018-06-22T19:25:50.000Z,15.50
2018-06-22T19:28:18.397Z,15.80
2018-06-22T19:30:46.872Z,15.70
2018-06-22T19:33:15.285Z,15.60
2018-06-22T19:35:43.715Z,15.40
2018-06-22T19:40:40.479Z,15.40
2018-06-22T19:43:13.197Z,15.30
2018-06-22T19:45:46.845Z,15.30
2018-06-22T19:48:20.672Z,15.40
2018-06-22T19:50:54.175Z,15.40
2018-06-22T19:53:27.922Z,15.40
2018-06-22T19:55:56.342Z,15.30
2018-06-22T19:58:24.772Z,15.30
2018-06-22T20:00:53.266Z,15.30
2018-06-22T20:03:21.691Z,15.20
2018-06-22T20:05:51.273Z,15.30
2018-06-22T20:08:19.665Z,15.20
2018-06-22T20:10:48.133Z,15.00
2018-06-22T20:13:16.527Z,14.90
2018-06-22T20:15:44.982Z,15.00
2018-06-22T20:18:13.448Z,14.90
2018-06-22T20:20:42.019Z,14.90
2018-06-22T20:23:10.394Z,14.80
2018-06-22T20:25:44.769Z,14.80
2018-06-22T20:28:13.665Z,14.80
2018-06-22T20:30:42.147Z,14.80
2018-06-22T20:33:10.596Z,14.80
2018-06-22T20:35:44.394Z,14.70
2018-06-22T20:38:18.407Z,14.60
2018-06-22T20:40:52.210Z,14.60
2018-06-22T20:43:25.758Z,14.50
2018-06-22T20:45:55.436Z,14.50
2018-06-22T20:48:29.162Z,14.40
2018-06-22T20:50:57.649Z,14.40
2018-06-22T20:53:26.110Z,14.40
2018-06-22T20:55:54.542Z,14.40
2018-06-22T21:00:51.707Z,14.30
2018-06-22T21:03:20.431Z,14.30
2018-06-22T21:05:48.885Z,14.20
2018-06-22T21:08:17.307Z,14.10
2018-06-22T21:10:45.746Z,14.10
2018-06-22T21:13:14.322Z,14.00
2018-06-22T21:15:42.737Z,14.00
2018-06-22T21:18:11.138Z,14.00
2018-06-22T21:20:43.812Z,14.00
2018-06-22T21:23:12.240Z,14.00
2018-06-22T21:25:40.699Z,14.00
2018-06-22T21:28:15.152Z,14.00
2018-06-22T21:33:29.643Z,13.90
2018-06-22T21:36:03.490Z,13.90
2018-06-22T21:38:37.325Z,13.90
2018-06-22T21:41:05.756Z,14.00
2018-06-22T21:43:35.178Z,14.00
2018-06-22T21:46:03.672Z,14.00
2018-06-22T21:48:32.077Z,14.10
2018-06-22T21:51:01.222Z,14.10
2018-06-22T21:53:29.725Z,14.20
2018-06-22T21:55:58.136Z,14.10
2018-06-22T21:58:26.557Z,14.10
2018-06-22T22:00:55.111Z,14.10
2018-06-22T22:03:23.565Z,14.10
2018-06-22T22:05:51.989Z,14.10
2018-06-22T22:08:20.415Z,14.10
2018-06-22T22:10:54.031Z,14.10
2018-06-22T22:13:23.270Z,14.00
2018-06-22T22:15:51.670Z,14.10
2018-06-22T22:18:20.120Z,14.00
2018-06-22T22:20:48.592Z,14.00
2018-06-22T22:23:17.054Z,14.00
2018-06-22T22:25:45.503Z,13.90
2018-06-22T22:28:13.984Z,13.90
2018-06-22T22:30:42.458Z,13.90
2018-06-22T22:33:10.849Z,13.80
2018-06-22T22:38:07.360Z,13.70
2018-06-22T22:40:35.750Z,13.70
2018-06-22T22:43:04.192Z,13.70
2018-06-22T22:45:32.890Z,13.70
2018-06-22T22:48:01.834Z,13.60
2018-06-22T22:50:30.607Z,13.60
2018-06-22T22:52:59.098Z,13.60
2018-06-22T22:55:27.571Z,13.50
2018-06-22T22:57:55.990Z,13.50
2018-06-22T23:00:24.519Z,13.50
2018-06-22T23:02:53.004Z,13.50
2018-06-22T23:05:21.409Z,13.50
2018-06-22T23:07:49.873Z,13.40
2018-06-22T23:10:18.433Z,13.30
2018-06-22T23:12:46.961Z,13.30
2018-06-22T23:15:15.384Z,13.30
2018-06-22T23:17:43.849Z,13.20
2018-06-22T23:22:51.773Z,13.20
2018-06-22T23:25:20.316Z,13.20
2018-06-22T23:27:48.693Z,13.20
2018-06-22T23:30:17.110Z,13.10
2018-06-22T23:32:45.525Z,13.10
2018-06-22T23:35:13.910Z,13.10
2018-06-22T23:37:42.321Z,13.00
2018-06-22T23:40:10.810Z,13.00
2018-06-22T23:42:39.198Z,13.00
2018-06-22T23:45:08.505Z,13.00
2018-06-22T23:47:36.969Z,12.90
2018-06-22T23:50:05.371Z,12.90
2018-06-22T23:55:01.977Z,12.80
2018-06-22T23:57:30.865Z,12.80
2018-06-22T23:59:59.278Z,12.70
